Time;durP1;ratioP1;P1;durP2;ratioP2;P2;SDS_P1;SDS_P2;PMS_P1;PMS_P2;Temp;Humidity;BMP_temperature;BMP_pressure;BME280_temperature;BME280_humidity;BME280_pressure;Samples;Min_cycle;Max_cycle;Signal;HPM_P1;HPM_P2
2023/12/13 00:01:38;;;;;;;141.43;64.78;;;;;;;4.51;79.13;95066.78;5031180;28;20033;-78
2023/12/13 00:04:03;;;;;;;140.57;62.80;;;;;;;4.47;79.24;95052.56;5013345;28;20055;-78
2023/12/13 00:06:29;;;;;;;133.52;61.47;;;;;;;4.59;79.31;95065.59;5013204;28;20050;-78
2023/12/13 00:08:55;;;;;;;128.32;60.88;;;;;;;4.52;78.92;95041.31;5013263;28;20133;-78
2023/12/13 00:11:20;;;;;;;119.40;51.90;;;;;;;4.31;79.22;95027.06;5012722;28;20533;-78
2023/12/13 00:13:46;;;;;;;102.13;48.50;;;;;;;4.32;78.97;95028.69;5013006;28;20049;-78
2023/12/13 00:16:12;;;;;;;122.07;51.53;;;;;;;4.24;79.11;95011.47;5044926;28;20037;-78
2023/12/13 00:18:37;;;;;;;116.00;51.58;;;;;;;4.35;79.49;95048.41;5050075;28;20104;-79
2023/12/13 00:21:03;;;;;;;122.78;55.03;;;;;;;3.74;79.22;94964.16;5032362;28;20044;-78
2023/12/13 00:23:28;;;;;;;129.00;55.53;;;;;;;3.78;79.54;94975.78;5050619;28;20036;-79
2023/12/13 00:25:54;;;;;;;103.90;50.90;;;;;;;4.32;79.90;95049.69;5014053;28;20465;-79
2023/12/13 00:28:20;;;;;;;117.13;50.72;;;;;;;4.25;80.02;95036.72;5014385;28;20044;-79
2023/12/13 00:30:45;;;;;;;107.00;50.65;;;;;;;4.53;79.60;95050.78;5029775;28;20430;-79
2023/12/13 00:33:11;;;;;;;94.50;43.78;;;;;;;4.27;79.02;95018.88;5016038;28;20085;-79
2023/12/13 00:35:38;;;;;;;95.03;45.55;;;;;;;4.33;78.92;95016.34;5049957;28;20037;-78
2023/12/13 00:38:04;;;;;;;104.30;46.42;;;;;;;4.30;78.78;95009.72;5050448;28;20527;-78
2023/12/13 00:40:30;;;;;;;98.78;46.60;;;;;;;4.45;79.00;95032.81;5032385;28;20530;-78
2023/12/13 00:42:55;;;;;;;116.78;53.53;;;;;;;3.95;78.98;94954.03;5042582;28;20061;-79
2023/12/13 00:45:22;;;;;;;129.32;51.92;;;;;;;4.16;78.86;94988.25;5030483;28;20101;-78
2023/12/13 00:47:48;;;;;;;122.20;53.63;;;;;;;4.32;78.70;95015.53;5031631;28;20052;-79
2023/12/13 00:50:13;;;;;;;121.60;54.90;;;;;;;4.16;79.23;94988.25;5031892;28;20423;-78
2023/12/13 00:52:39;;;;;;;126.45;57.45;;;;;;;4.28;79.14;95001.28;5044146;28;20113;-78
2023/12/13 00:55:05;;;;;;;130.70;58.22;;;;;;;4.38;78.47;95027.72;5045915;28;20071;-78
2023/12/13 00:57:31;;;;;;;132.18;59.65;;;;;;;4.34;78.98;95031.06;5015989;28;20040;-78
2023/12/13 00:59:57;;;;;;;141.00;58.38;;;;;;;3.77;79.50;94947.97;5028523;28;20037;-78
2023/12/13 01:02:22;;;;;;;126.47;57.88;;;;;;;4.04;79.73;94977.03;5028150;28;20111;-78
2023/12/13 01:04:48;;;;;;;127.97;54.53;;;;;;;2.27;79.90;94699.56;5049684;28;20510;-78
2023/12/13 01:07:13;;;;;;;134.45;59.47;;;;;;;4.33;79.19;95000.59;5012078;28;20045;-78
2023/12/13 01:09:39;;;;;;;130.57;57.25;;;;;;;4.17;79.72;94978.56;5031758;28;20468;-78
2023/12/13 01:12:06;;;;;;;131.68;58.10;;;;;;;3.93;79.42;94919.38;5027829;28;20041;-78
2023/12/13 01:14:32;;;;;;;127.18;59.55;;;;;;;4.27;79.23;94974.25;5030116;28;20040;-79
2023/12/13 01:16:58;;;;;;;135.85;58.60;;;;;;;4.39;79.44;94981.25;5029755;28;20491;-78
2023/12/13 01:19:24;;;;;;;126.60;59.88;;;;;;;3.57;79.14;94844.56;5036520;28;20028;-78
2023/12/13 01:21:50;;;;;;;127.03;60.00;;;;;;;3.82;79.04;94874.59;5023902;28;20065;-78
2023/12/13 01:24:16;;;;;;;133.27;59.60;;;;;;;4.21;79.47;94932.41;5019812;28;20487;-79
2023/12/13 01:26:41;;;;;;;132.43;58.80;;;;;;;4.09;79.39;94918.59;5031304;28;20419;-79
2023/12/13 01:29:07;;;;;;;128.18;58.00;;;;;;;4.04;79.55;94924.56;5048745;28;20029;-78
2023/12/13 01:31:32;;;;;;;139.20;61.15;;;;;;;4.33;79.65;94969.09;5031132;28;20059;-79
2023/12/13 01:33:58;;;;;;;135.55;61.78;;;;;;;3.93;80.05;94917.53;5035224;28;20040;-78
2023/12/13 01:36:23;;;;;;;128.55;58.75;;;;;;;4.19;79.71;94958.13;5012213;28;20033;-78
2023/12/13 01:38:49;;;;;;;133.02;59.70;;;;;;;4.01;79.68;94927.66;5029510;28;20085;-78
2023/12/13 01:41:15;;;;;;;131.85;57.83;;;;;;;4.31;79.92;94990.31;5031823;28;20140;-78
2023/12/13 01:43:41;;;;;;;133.85;58.58;;;;;;;4.22;80.19;94986.50;5013820;28;20036;-78
2023/12/13 01:46:08;;;;;;;136.00;62.17;;;;;;;4.06;80.27;94967.06;5012287;28;20252;-79
2023/12/13 01:48:33;;;;;;;125.88;58.70;;;;;;;3.20;79.96;94808.31;5012515;28;20029;-77
2023/12/13 01:50:59;;;;;;;128.80;59.75;;;;;;;4.31;79.66;94969.31;5014603;28;20523;-78
2023/12/13 01:53:26;;;;;;;131.63;61.08;;;;;;;3.96;79.80;94900.53;5014681;28;20109;-77
2023/12/13 01:55:54;;;;;;;131.55;60.40;;;;;;;3.98;79.80;94896.63;5032778;28;20029;-77
2023/12/13 01:58:20;;;;;;;127.18;59.55;;;;;;;3.97;80.07;94902.13;5014937;28;20108;-76
2023/12/13 02:00:46;;;;;;;138.60;59.40;;;;;;;4.29;79.93;94932.00;5014140;28;20543;-76
2023/12/13 02:03:12;;;;;;;131.43;58.28;;;;;;;4.41;79.82;94948.47;5031233;28;20065;-76
2023/12/13 02:05:39;;;;;;;127.93;60.33;;;;;;;4.26;79.44;94930.69;5006422;28;20076;-77
2023/12/13 02:08:05;;;;;;;117.80;57.42;;;;;;;4.43;79.82;94945.59;5007266;28;20137;-77
2023/12/13 02:10:30;;;;;;;139.18;57.42;;;;;;;3.98;79.89;94887.97;5021980;28;20037;-77
2023/12/13 02:12:56;;;;;;;122.93;58.92;;;;;;;4.27;80.38;94942.75;5007891;28;20094;-76
2023/12/13 02:15:22;;;;;;;117.78;55.47;;;;;;;3.95;80.17;94864.84;5011741;28;20499;-76
2023/12/13 02:17:52;;;;;;;129.25;56.55;;;;;;;4.13;80.15;94891.59;5010873;28;20034;-77
2023/12/13 02:20:18;;;;;;;122.88;55.58;;;;;;;4.11;80.10;94874.53;5012435;28;20061;-77
2023/12/13 02:22:44;;;;;;;126.07;53.03;;;;;;;4.19;80.18;94882.00;5015052;28;20518;-78
2023/12/13 02:25:25;;;;;;;117.22;54.17;;;;;;;4.18;80.25;94881.19;5030329;28;20120;-79
2023/12/13 02:27:52;;;;;;;106.82;49.58;;;;;;;4.41;80.66;94921.44;5014213;28;20044;-79
2023/12/13 02:30:18;;;;;;;108.00;48.30;;;;;;;4.31;80.11;94910.75;5006417;28;20041;-78
2023/12/13 02:32:43;;;;;;;108.88;47.67;;;;;;;4.17;80.17;94868.31;5041597;28;20037;-79
2023/12/13 02:35:08;;;;;;;119.22;51.53;;;;;;;4.32;80.34;94913.16;5013617;28;20575;-79
2023/12/13 02:37:34;;;;;;;113.25;49.40;;;;;;;4.36;80.22;94909.00;5013654;28;20132;-78
2023/12/13 02:40:02;;;;;;;106.28;44.65;;;;;;;4.25;79.94;94881.03;5014275;28;20098;-79
2023/12/13 02:42:28;;;;;;;100.63;43.17;;;;;;;4.12;79.62;94876.13;5013372;28;20265;-79
2023/12/13 02:44:54;;;;;;;91.60;39.83;;;;;;;4.34;80.07;94873.53;5014304;28;20038;-79
2023/12/13 02:47:21;;;;;;;86.82;40.50;;;;;;;4.17;79.63;94829.75;5014507;28;20640;-79
2023/12/13 02:49:46;;;;;;;92.97;37.78;;;;;;;4.27;79.21;94860.59;5014599;28;20044;-79
2023/12/13 02:52:12;;;;;;;90.07;39.28;;;;;;;4.07;79.13;94834.84;5014559;28;20037;-79
2023/12/13 02:54:37;;;;;;;89.03;36.83;;;;;;;4.34;79.05;94892.72;5031929;28;20029;-79
2023/12/13 02:57:03;;;;;;;83.20;36.53;;;;;;;4.46;78.65;94901.28;5031750;28;20268;-79
2023/12/13 02:59:29;;;;;;;93.43;39.45;;;;;;;3.83;79.04;94821.09;5030875;28;20461;-81
2023/12/13 03:01:54;;;;;;;87.47;37.50;;;;;;;4.34;78.70;94879.59;5017164;28;20384;-81
2023/12/13 03:04:19;;;;;;;79.55;36.90;;;;;;;4.36;78.63;94885.38;5048185;28;20082;-80
2023/12/13 03:06:46;;;;;;;87.05;37.75;;;;;;;4.48;78.32;94901.84;5047936;28;20123;-80
2023/12/13 03:09:11;;;;;;;90.82;38.03;;;;;;;4.40;78.38;94881.25;5029996;28;20041;-81
2023/12/13 03:11:39;;;;;;;102.85;42.50;;;;;;;4.40;78.06;94883.06;5019358;28;20062;-80
2023/12/13 03:14:04;;;;;;;99.68;41.92;;;;;;;4.41;77.73;94880.22;5023426;28;20067;-81
2023/12/13 03:16:30;;;;;;;99.55;40.95;;;;;;;4.08;77.81;94818.06;5033667;28;20041;-80
2023/12/13 03:18:55;;;;;;;100.03;42.03;;;;;;;4.36;77.05;94874.88;5010490;28;20049;-80
2023/12/13 03:21:21;;;;;;;99.57;41.25;;;;;;;4.28;77.49;94870.81;5028057;28;20041;-78
2023/12/13 03:23:47;;;;;;;83.72;36.72;;;;;;;4.41;77.77;94906.47;5031248;28;20056;-78
2023/12/13 03:26:12;;;;;;;91.28;37.60;;;;;;;4.34;77.41;94892.72;5031656;28;20037;-78
2023/12/13 03:28:38;;;;;;;86.20;38.53;;;;;;;4.23;77.58;94883.09;5013482;28;20030;-79
2023/12/13 03:31:08;;;;;;;85.97;37.40;;;;;;;3.78;77.41;94833.38;5013508;28;20037;-79
2023/12/13 03:33:34;;;;;;;69.35;33.10;;;;;;;4.20;77.95;94915.84;5013239;28;20473;-78
2023/12/13 03:35:59;;;;;;;68.65;28.13;;;;;;;3.97;77.92;94896.88;5013559;28;20106;-78
2023/12/13 03:38:25;;;;;;;64.70;27.25;;;;;;;4.18;77.87;94910.06;5031029;28;20061;-78
2023/12/13 03:40:50;;;;;;;62.88;29.77;;;;;;;3.86;77.59;94857.38;5012929;28;20124;-78
2023/12/13 03:43:16;;;;;;;63.70;28.08;;;;;;;4.00;77.98;94872.78;5031112;28;20484;-78
2023/12/13 03:45:41;;;;;;;73.97;33.60;;;;;;;4.11;77.69;94895.53;5031170;28;20064;-78
2023/12/13 03:48:07;;;;;;;72.95;32.65;;;;;;;4.18;78.02;94917.16;5012607;28;20120;-78
2023/12/13 03:50:32;;;;;;;80.28;36.45;;;;;;;4.11;78.58;94911.28;5030884;28;20041;-78
2023/12/13 03:52:58;;;;;;;81.32;34.85;;;;;;;4.18;78.24;94917.94;5012433;28;20041;-78
2023/12/13 03:55:23;;;;;;;85.18;35.25;;;;;;;4.30;78.58;94923.09;5010710;28;20045;-78
2023/12/13 03:57:49;;;;;;;83.78;39.47;;;;;;;4.07;79.03;94883.91;5009688;28;20042;-78
2023/12/13 04:00:15;;;;;;;86.82;37.20;;;;;;;3.67;79.14;94805.38;5011325;28;20041;-78
2023/12/13 04:02:40;;;;;;;88.57;38.20;;;;;;;4.15;79.98;94892.16;5031209;28;20040;-78
2023/12/13 04:05:06;;;;;;;89.82;40.45;;;;;;;3.92;79.55;94870.56;5031018;28;20537;-79
2023/12/13 04:07:32;;;;;;;83.15;38.80;;;;;;;4.18;80.21;94901.41;5015197;28;20062;-78
2023/12/13 04:09:57;;;;;;;92.75;41.80;;;;;;;4.28;80.37;94891.03;5050554;28;20044;-78
2023/12/13 04:12:23;;;;;;;82.43;36.63;;;;;;;4.16;80.22;94850.97;5051150;28;20113;-79
2023/12/13 04:14:48;;;;;;;75.78;36.63;;;;;;;4.11;79.94;94856.16;5032972;28;20028;-79
2023/12/13 04:17:14;;;;;;;85.70;38.28;;;;;;;4.07;80.66;94852.41;5032814;28;20029;-78
2023/12/13 04:19:39;;;;;;;86.28;36.83;;;;;;;3.94;81.11;94839.63;5023975;28;20033;-78
2023/12/13 04:22:05;;;;;;;92.20;37.17;;;;;;;4.04;80.48;94850.28;5012796;28;20025;-78
2023/12/13 04:24:30;;;;;;;83.03;35.80;;;;;;;4.11;81.34;94859.59;5012553;28;20072;-78
2023/12/13 04:26:56;;;;;;;82.68;36.60;;;;;;;4.20;80.85;94873.06;5031395;28;20038;-78
2023/12/13 04:29:21;;;;;;;82.40;38.00;;;;;;;3.86;81.36;94794.41;5010611;28;20038;-78
2023/12/13 04:31:48;;;;;;;84.22;35.30;;;;;;;4.25;81.33;94854.78;5009215;28;20471;-78
2023/12/13 04:34:13;;;;;;;80.65;36.55;;;;;;;4.15;81.63;94833.63;5004116;28;20652;-78
2023/12/13 04:36:39;;;;;;;82.03;36.33;;;;;;;4.33;81.08;94840.44;5025759;28;20037;-78
2023/12/13 04:39:05;;;;;;;74.90;35.00;;;;;;;4.20;80.98;94837.13;5012417;28;20094;-78
2023/12/13 04:41:32;;;;;;;72.07;35.30;;;;;;;4.13;81.44;94847.00;5025540;28;20029;-78
2023/12/13 04:43:57;;;;;;;79.25;37.22;;;;;;;3.96;82.28;94822.63;5032396;28;20037;-78
2023/12/13 04:46:23;;;;;;;84.65;36.35;;;;;;;2.82;82.00;94619.59;5032299;28;20033;-78
2023/12/13 04:48:49;;;;;;;79.22;36.42;;;;;;;4.34;81.83;94853.34;5044083;28;20159;-79
2023/12/13 04:51:14;;;;;;;77.80;34.45;;;;;;;4.31;81.40;94853.00;5048173;28;20410;-78
2023/12/13 04:53:40;;;;;;;86.70;37.15;;;;;;;4.32;81.48;94854.59;5025900;28;20097;-78
2023/12/13 04:56:06;;;;;;;76.55;33.67;;;;;;;3.97;81.60;94786.69;5012767;28;20036;-78
2023/12/13 04:58:31;;;;;;;79.30;34.10;;;;;;;4.25;81.33;94829.34;5020292;28;20037;-80
2023/12/13 05:00:57;;;;;;;80.15;33.88;;;;;;;4.00;81.18;94781.75;5031846;28;20055;-81
2023/12/13 05:03:22;;;;;;;82.95;32.25;;;;;;;4.01;81.12;94778.09;5039443;28;20122;-81
2023/12/13 05:05:48;;;;;;;75.13;31.52;;;;;;;4.07;80.82;94821.72;5029785;28;20439;-78
2023/12/13 05:08:13;;;;;;;68.10;32.42;;;;;;;3.97;81.64;94805.06;5011395;28;20045;-78
2023/12/13 05:10:43;;;;;;;76.57;31.40;;;;;;;4.11;81.60;94814.97;5011382;28;20141;-79
2023/12/13 05:13:09;;;;;;;58.00;30.20;;;;;;;3.98;81.94;94791.66;5019803;28;20105;-80
2023/12/13 05:15:35;;;;;;;59.47;27.48;;;;;;;3.90;81.32;94776.34;4995597;28;20025;-80
2023/12/13 05:18:02;;;;;;;46.17;22.83;;;;;;;4.00;81.97;94804.56;5019092;28;20382;-79
2023/12/13 05:20:28;;;;;;;50.17;22.98;;;;;;;3.36;81.93;94701.88;5006104;28;20080;-79
2023/12/13 05:22:53;;;;;;;49.63;23.75;;;;;;;3.88;82.20;94791.56;5011434;28;20065;-78
2023/12/13 05:25:19;;;;;;;53.03;23.63;;;;;;;3.66;81.96;94740.88;5010766;28;20079;-79
2023/12/13 05:27:45;;;;;;;57.70;25.00;;;;;;;4.11;82.05;94822.84;4997194;28;20551;-79
2023/12/13 05:30:11;;;;;;;56.28;27.02;;;;;;;4.08;81.90;94804.94;5005332;27;20049;-79
2023/12/13 05:32:37;;;;;;;66.63;27.27;;;;;;;4.02;82.53;94811.16;5010695;27;20041;-79
2023/12/13 05:35:03;;;;;;;67.60;28.67;;;;;;;3.95;82.88;94838.59;5028312;28;20029;-78
2023/12/13 05:37:29;;;;;;;55.20;26.27;;;;;;;3.78;82.98;94823.66;5017907;28;20045;-79
2023/12/13 05:39:54;;;;;;;51.72;23.45;;;;;;;3.47;82.88;94746.38;5014155;28;20533;-78
2023/12/13 05:42:20;;;;;;;47.47;21.60;;;;;;;3.65;82.56;94755.81;5012923;28;20738;-78
2023/12/13 05:44:46;;;;;;;40.75;19.45;;;;;;;3.74;82.35;94762.22;5010964;28;20136;-79
2023/12/13 05:47:12;;;;;;;49.35;24.02;;;;;;;4.07;82.15;94818.31;4996775;28;20057;-79
2023/12/13 05:49:37;;;;;;;47.80;21.73;;;;;;;3.95;82.10;94810.53;5015373;28;20131;-78
2023/12/13 05:52:03;;;;;;;60.65;29.02;;;;;;;4.19;81.77;94850.50;5028888;27;20041;-79
2023/12/13 05:54:29;;;;;;;44.22;21.80;;;;;;;4.09;82.07;94845.91;5017503;28;20163;-78
2023/12/13 05:56:55;;;;;;;49.90;23.38;;;;;;;3.93;82.79;94822.28;5003161;28;20106;-79
2023/12/13 05:59:20;;;;;;;53.38;23.10;;;;;;;4.04;82.44;94821.44;5022659;28;20045;-78
2023/12/13 06:01:46;;;;;;;58.47;26.90;;;;;;;4.07;82.78;94815.69;5011376;27;20041;-79
2023/12/13 06:04:12;;;;;;;53.45;25.23;;;;;;;4.13;82.21;94799.75;5008642;27;20124;-79
2023/12/13 06:06:43;;;;;;;55.85;25.77;;;;;;;4.10;82.16;94774.00;5015643;28;20072;-78
2023/12/13 06:09:09;;;;;;;52.13;25.33;;;;;;;4.35;81.79;94806.88;5099304;27;20069;-78
2023/12/13 06:11:35;;;;;;;58.05;26.75;;;;;;;4.24;81.68;94787.56;5005481;28;20198;-79
2023/12/13 06:14:01;;;;;;;68.45;26.58;;;;;;;4.09;81.41;94755.88;4997494;28;20042;-78
2023/12/13 06:16:29;;;;;;;55.58;26.90;;;;;;;4.52;81.46;94823.34;5020330;28;20052;-78
2023/12/13 06:18:54;;;;;;;60.90;25.60;;;;;;;4.32;81.08;94792.41;5011508;28;20104;-78
2023/12/13 06:21:20;;;;;;;55.60;28.23;;;;;;;4.15;80.54;94731.28;5013639;28;20457;-79
2023/12/13 06:23:46;;;;;;;69.18;32.80;;;;;;;4.54;81.10;94795.81;5005873;28;20050;-78
2023/12/13 06:26:11;;;;;;;73.80;31.63;;;;;;;4.61;81.15;94804.31;5000929;28;20041;-79
2023/12/13 06:28:37;;;;;;;70.93;33.33;;;;;;;4.35;81.30;94767.50;5003019;28;20133;-79
2023/12/13 06:31:02;;;;;;;87.68;35.15;;;;;;;4.67;81.07;94807.78;5029573;28;20356;-78
2023/12/13 06:33:29;;;;;;;78.28;36.28;;;;;;;4.41;81.40;94745.50;5008103;28;20046;-79
2023/12/13 06:35:55;;;;;;;77.22;35.20;;;;;;;4.80;81.35;94790.88;5014520;28;20037;-79
2023/12/13 06:38:21;;;;;;;76.35;36.00;;;;;;;4.77;81.22;94773.75;5011222;28;20068;-80
2023/12/13 06:40:46;;;;;;;91.50;37.88;;;;;;;4.77;80.77;94786.09;5013329;28;20419;-79
2023/12/13 06:43:13;;;;;;;80.75;40.50;;;;;;;4.85;80.43;94769.88;5019189;28;20036;-80
2023/12/13 06:45:38;;;;;;;86.32;39.22;;;;;;;4.75;80.48;94744.28;5014037;28;20388;-79
2023/12/13 06:48:06;;;;;;;96.90;40.60;;;;;;;5.02;80.84;94775.84;5008176;28;20495;-80
2023/12/13 06:50:32;;;;;;;86.47;38.67;;;;;;;4.83;80.34;94730.72;4999553;28;20227;-79
2023/12/13 06:52:58;;;;;;;90.40;39.75;;;;;;;4.85;80.60;94736.53;4984750;28;20514;-79
2023/12/13 06:55:24;;;;;;;89.03;41.00;;;;;;;5.05;80.35;94755.09;5014072;28;20072;-79
2023/12/13 06:57:50;;;;;;;93.93;43.15;;;;;;;4.99;80.47;94734.28;5013583;28;20337;-79
2023/12/13 07:00:16;;;;;;;98.05;41.13;;;;;;;4.86;80.52;94732.06;5010675;28;20096;-80
2023/12/13 07:02:42;;;;;;;82.90;41.35;;;;;;;4.92;80.52;94737.13;5007518;28;20847;-78
2023/12/13 07:05:08;;;;;;;88.63;38.88;;;;;;;5.05;80.80;94778.75;5018881;28;20147;-80
2023/12/13 07:07:34;;;;;;;95.97;42.08;;;;;;;5.06;81.25;94792.69;5013005;28;20056;-80
2023/12/13 07:09:59;;;;;;;105.63;41.83;;;;;;;4.53;80.66;94709.41;5018219;28;20064;-80
2023/12/13 07:12:28;;;;;;;96.88;42.47;;;;;;;5.02;80.86;94760.88;5012076;28;20060;-79
2023/12/13 07:14:56;;;;;;;91.40;43.28;;;;;;;4.88;81.42;94743.13;5016869;28;20072;-79
2023/12/13 07:17:22;;;;;;;91.38;42.10;;;;;;;5.08;81.18;94766.16;5040237;27;20032;-79
2023/12/13 07:19:48;;;;;;;91.38;39.90;;;;;;;5.05;80.62;94735.91;5019937;28;20064;-80
2023/12/13 07:22:14;;;;;;;79.10;38.60;;;;;;;5.24;80.28;94758.19;5016419;27;20041;-80
2023/12/13 07:24:40;;;;;;;93.10;41.63;;;;;;;5.35;80.45;94757.19;5021286;28;20047;-78
2023/12/13 07:27:05;;;;;;;89.38;41.42;;;;;;;5.34;80.57;94763.50;5038997;28;20035;-79
2023/12/13 07:29:32;;;;;;;89.32;40.38;;;;;;;5.23;80.09;94743.44;5034028;27;20083;-77
2023/12/13 07:31:58;;;;;;;85.47;39.03;;;;;;;5.29;79.55;94768.72;5011125;28;20033;-80
2023/12/13 07:34:23;;;;;;;83.10;38.13;;;;;;;5.27;79.54;94739.25;5023796;28;20470;-79
2023/12/13 07:36:49;;;;;;;82.28;36.38;;;;;;;5.42;79.30;94759.63;5014127;28;20094;-79
2023/12/13 07:39:18;;;;;;;79.10;36.20;;;;;;;5.17;79.00;94720.00;5021162;28;20037;-78
2023/12/13 07:41:44;;;;;;;81.07;33.05;;;;;;;5.66;79.04;94760.84;5030134;28;20032;-79
2023/12/13 07:44:10;;;;;;;68.05;30.35;;;;;;;5.69;79.15;94770.88;5014026;28;20495;-80
2023/12/13 07:46:36;;;;;;;81.10;31.58;;;;;;;5.80;78.79;94754.09;5033193;28;20543;-79
2023/12/13 07:49:05;;;;;;;47.35;24.25;;;;;;;4.79;77.80;94594.88;5030306;27;20043;-80
2023/12/13 07:51:31;;;;;;;46.28;20.55;;;;;;;5.67;77.76;94720.34;5016930;28;20131;-79
2023/12/13 07:53:59;;;;;;;46.60;20.90;;;;;;;5.52;77.18;94680.00;5006841;28;20570;-80
2023/12/13 07:56:25;;;;;;;48.00;22.42;;;;;;;5.83;76.50;94732.56;5024323;28;20439;-80
2023/12/13 07:58:51;;;;;;;55.63;23.42;;;;;;;5.76;76.27;94728.56;5003215;28;20125;-79
2023/12/13 08:01:17;;;;;;;72.75;30.58;;;;;;;6.08;76.31;94778.53;5014742;27;20116;-80
2023/12/13 08:03:43;;;;;;;55.80;24.17;;;;;;;5.96;75.66;94757.66;5007980;28;20028;-79
2023/12/13 08:06:13;;;;;;;54.88;24.67;;;;;;;6.16;76.01;94770.97;5040026;28;20044;-79
2023/12/13 08:08:40;;;;;;;73.60;33.83;;;;;;;5.77;75.14;94712.53;5030856;28;20270;-79
2023/12/13 08:11:06;;;;;;;97.47;44.08;;;;;;;5.85;75.62;94731.53;5018534;28;20041;-80
2023/12/13 08:13:33;;;;;;;83.82;40.17;;;;;;;5.91;76.10;94733.16;5014252;27;20041;-81
2023/12/13 08:15:59;;;;;;;77.18;35.85;;;;;;;5.93;76.14;94731.88;5011915;28;20041;-80
2023/12/13 08:18:24;;;;;;;96.20;41.95;;;;;;;5.62;75.73;94659.03;5011340;28;20045;-80
2023/12/13 08:20:50;;;;;;;95.22;39.38;;;;;;;6.21;75.26;94733.31;5013912;28;20037;-80
2023/12/13 08:23:18;;;;;;;59.08;28.23;;;;;;;6.00;74.76;94698.22;5021367;28;20033;-81
2023/12/13 08:25:44;;;;;;;58.45;25.55;;;;;;;6.08;74.36;94710.09;5036305;28;20047;-81
2023/12/13 08:28:10;;;;;;;42.90;22.38;;;;;;;6.31;74.38;94714.94;5007504;28;20040;-81
2023/12/13 08:30:35;;;;;;;51.63;22.42;;;;;;;6.27;73.92;94702.53;5031726;28;20040;-81
2023/12/13 08:33:01;;;;;;;45.42;22.17;;;;;;;6.52;73.85;94747.41;5013449;28;20926;-80
2023/12/13 08:35:27;;;;;;;44.50;20.25;;;;;;;6.12;73.44;94730.38;5027727;28;20900;-80
2023/12/13 08:37:54;;;;;;;45.80;20.60;;;;;;;5.73;73.38;94645.66;5009712;28;20032;-80
2023/12/13 08:40:19;;;;;;;49.00;23.17;;;;;;;6.04;73.89;94696.63;5007222;28;20029;-81
2023/12/13 08:42:45;;;;;;;43.55;21.48;;;;;;;6.38;73.76;94739.19;5008270;28;20042;-81
2023/12/13 08:45:10;;;;;;;42.35;20.60;;;;;;;6.48;73.54;94757.69;5002545;28;20033;-80
2023/12/13 08:47:39;;;;;;;55.40;21.83;;;;;;;6.17;72.88;94712.00;5011947;28;20033;-81
2023/12/13 08:50:06;;;;;;;45.97;20.15;;;;;;;6.58;72.94;94760.34;5025341;28;20020;-80
2023/12/13 08:52:32;;;;;;;48.20;21.85;;;;;;;6.17;73.45;94714.63;5035394;28;20049;-80
2023/12/13 08:54:57;;;;;;;48.35;21.92;;;;;;;6.17;73.31;94727.78;5018085;28;20093;-80
2023/12/13 08:57:23;;;;;;;40.72;20.83;;;;;;;6.57;72.96;94771.13;5022280;28;20033;-79
2023/12/13 08:59:49;;;;;;;50.33;25.35;;;;;;;6.46;72.96;94737.91;5019753;28;20061;-81
2023/12/13 09:02:15;;;;;;;57.35;25.92;;;;;;;6.54;72.52;94727.66;5006574;28;20033;-79
2023/12/13 09:04:40;;;;;;;59.22;28.33;;;;;;;6.70;72.69;94759.31;5007079;28;20033;-79
2023/12/13 09:07:06;;;;;;;67.28;32.05;;;;;;;6.68;72.70;94758.78;4993589;28;20048;-79
2023/12/13 09:09:32;;;;;;;80.88;39.20;;;;;;;6.70;73.40;94741.69;4990971;28;20238;-79
2023/12/13 09:11:58;;;;;;;79.45;38.40;;;;;;;6.66;73.42;94737.16;5011024;28;20037;-79
2023/12/13 09:14:25;;;;;;;70.75;34.10;;;;;;;6.52;73.50;94703.41;5091987;27;21562;-78
2023/12/13 09:16:52;;;;;;;83.38;40.28;;;;;;;6.70;73.41;94727.72;5016852;28;20136;-78
2023/12/13 09:19:17;;;;;;;88.05;38.92;;;;;;;6.63;73.72;94704.25;5023511;28;20621;-79
2023/12/13 09:21:43;;;;;;;79.15;38.17;;;;;;;6.66;73.85;94705.53;5005531;28;20952;-79
2023/12/13 09:24:08;;;;;;;75.80;37.25;;;;;;;6.57;73.50;94663.09;5027028;28;20039;-78
2023/12/13 09:26:37;;;;;;;74.63;35.85;;;;;;;6.74;72.70;94641.78;5011221;28;20554;-78
2023/12/13 09:29:03;;;;;;;80.40;37.40;;;;;;;7.03;72.24;94668.44;5027430;28;20051;-79
2023/12/13 09:31:29;;;;;;;105.35;47.08;;;;;;;7.10;72.09;94675.03;5011610;28;20041;-79
2023/12/13 09:33:57;;;;;;;109.13;48.63;;;;;;;7.29;72.00;94704.31;5019939;28;20037;-78
2023/12/13 09:36:24;;;;;;;103.85;48.03;;;;;;;6.70;71.93;94591.47;5036901;28;20033;-77
2023/12/13 09:38:50;;;;;;;116.40;46.83;;;;;;;7.16;71.85;94678.47;5009642;28;20097;-80
2023/12/13 09:41:28;;;;;;;123.03;48.13;;;;;;;7.46;71.85;94725.16;5039441;28;20060;-84
2023/12/13 09:43:54;;;;;;;116.47;45.08;;;;;;;7.51;71.40;94712.75;5020632;28;20059;-82
2023/12/13 09:46:21;;;;;;;96.47;43.75;;;;;;;7.15;70.68;94611.75;5041809;28;20123;-84
2023/12/13 09:48:48;;;;;;;110.75;46.05;;;;;;;7.46;70.85;94643.38;5018606;28;20033;-83
2023/12/13 09:51:18;;;;;;;104.82;44.38;;;;;;;7.31;70.68;94620.44;5045851;28;20538;-85
2023/12/13 09:53:50;;;;;;;107.72;43.38;;;;;;;7.51;70.98;94646.78;5036340;28;20040;-83
2023/12/13 09:56:16;;;;;;;;;;;;;;;7.82;70.42;94681.03;5048407;27;20121;-82
2023/12/13 09:58:42;;;;;;;93.95;40.72;;;;;;;7.37;71.03;94600.91;5041971;28;19924;-81
2023/12/13 10:01:14;;;;;;;96.47;38.13;;;;;;;7.95;71.27;94661.97;5021403;28;20586;-80
2023/12/13 10:03:39;;;;;;;;;;;;;;;8.11;70.13;94660.88;5030205;27;20033;-81
2023/12/13 10:06:07;;;;;;;56.20;25.73;;;;;;;7.92;70.05;94629.00;5027622;28;20587;-79
2023/12/13 10:08:33;;;;;;;55.25;25.33;;;;;;;8.36;69.84;94646.78;5000203;28;20639;-80
2023/12/13 10:10:58;;;;;;;74.38;31.48;;;;;;;8.44;69.04;94643.59;5010924;28;20170;-78
2023/12/13 10:13:25;;;;;;;77.50;33.22;;;;;;;8.25;68.81;94627.53;5028550;27;20033;-79
2023/12/13 10:15:51;;;;;;;87.70;31.83;;;;;;;8.30;68.85;94635.44;5015896;28;20033;-79
2023/12/13 10:18:17;;;;;;;65.85;30.83;;;;;;;7.86;68.50;94564.06;5011747;28;20028;-79
2023/12/13 10:20:45;;;;;;;73.80;31.23;;;;;;;8.07;69.24;94581.41;5012146;28;20040;-81
2023/12/13 10:23:11;;;;;;;55.15;26.65;;;;;;;7.92;70.75;94584.13;5006725;28;20033;-80
2023/12/13 10:25:37;;;;;;;54.67;25.67;;;;;;;8.13;70.04;94606.72;5018440;28;20048;-79
2023/12/13 10:28:06;;;;;;;55.55;25.65;;;;;;;8.24;70.28;94596.88;5015780;28;20467;-83
2023/12/13 10:30:33;;;;;;;58.42;24.70;;;;;;;8.26;70.30;94594.75;5015916;28;20098;-83
2023/12/13 10:32:59;;;;;;;53.60;24.27;;;;;;;8.22;70.43;94566.53;5032675;28;20033;-82
2023/12/13 10:35:25;;;;;;;45.20;23.33;;;;;;;7.65;70.39;94502.66;5027744;27;20037;-84
2023/12/13 10:37:58;;;;;;;60.17;25.38;;;;;;;7.35;70.00;94466.63;5027670;27;20029;-83
2023/12/13 10:40:24;;;;;;;58.42;25.95;;;;;;;8.02;70.20;94533.09;5041183;28;20046;-83
2023/12/13 10:42:52;;;;;;;53.10;23.05;;;;;;;7.82;70.23;94517.38;5043071;27;20089;-84
2023/12/13 10:45:22;;;;;;;49.35;26.73;;;;;;;7.96;69.54;94542.09;5023636;28;20101;-83
2023/12/13 10:47:49;;;;;;;46.67;22.98;;;;;;;8.35;69.38;94560.66;5025505;28;20037;-83
2023/12/13 10:50:15;;;;;;;55.88;23.40;;;;;;;8.17;69.45;94526.94;5025916;28;20044;-80
2023/12/13 10:52:42;;;;;;;55.63;21.52;;;;;;;7.95;69.34;94495.63;5042655;28;20106;-81
2023/12/13 10:55:08;;;;;;;75.78;24.00;;;;;;;8.31;69.87;94568.38;5021628;28;20025;-82
2023/12/13 10:57:37;;;;;;;58.92;22.45;;;;;;;8.25;69.40;94552.75;5041796;27;20029;-80
2023/12/13 11:00:05;;;;;;;70.45;23.15;;;;;;;8.30;70.12;94561.47;5025466;28;20077;-82
2023/12/13 11:02:41;;;;;;;65.18;22.27;;;;;;;8.38;69.80;94570.69;5022557;28;20086;-82
2023/12/13 11:05:07;;;;;;;45.42;20.98;;;;;;;8.36;69.83;94551.69;5027581;28;20056;-83
2023/12/13 11:07:43;;;;;;;56.70;21.45;;;;;;;8.31;69.94;94528.75;5044121;27;20063;-82
2023/12/13 11:10:10;;;;;;;51.17;21.08;;;;;;;8.55;69.47;94541.22;5046012;28;20017;-83
2023/12/13 11:12:49;;;;;;;54.50;23.02;;;;;;;8.27;69.55;94508.38;5048729;28;20180;-82
2023/12/13 11:15:15;;;;;;;58.25;22.13;;;;;;;8.43;70.08;94536.31;5015568;28;20037;-80
2023/12/13 11:17:49;;;;;;;51.00;22.92;;;;;;;8.03;69.74;94473.94;5036118;28;20123;-80
2023/12/13 11:20:15;;;;;;;44.08;21.33;;;;;;;7.99;70.27;94441.22;5012531;28;20503;-80